Time;durP1;ratioP1;P1;durP2;ratioP2;P2;SDS_P1;SDS_P2;PMS_P1;PMS_P2;Temp;Humidity;BMP_temperature;BMP_pressure;BME280_temperature;BME280_humidity;BME280_pressure;Samples;Min_cycle;Max_cycle;Signal;HPM_P1;HPM_P2
2022/02/15 00:00:27;;;;;;;22.15;17.15;;;;;;;5.94;64.62;99469.61;2827885;84;21007;-73
2022/02/15 00:04:30;;;;;;;17.12;12.90;;;;;;;5.94;64.66;99463.02;2827808;84;21561;-72
2022/02/15 00:08:32;;;;;;;20.08;14.20;;;;;;;5.95;64.66;99464.70;2826552;84;21026;-73
2022/02/15 00:12:37;;;;;;;24.65;16.37;;;;;;;5.93;65.00;99458.70;2786810;85;21062;-73
2022/02/15 00:16:38;;;;;;;19.05;14.68;;;;;;;5.93;65.09;99455.56;2832716;84;21019;-72
2022/02/15 00:20:41;;;;;;;15.85;11.68;;;;;;;6.00;65.44;99462.54;2836015;84;21027;-71
2022/02/15 00:24:43;;;;;;;15.75;12.43;;;;;;;6.03;65.72;99464.98;2828370;84;20980;-73
2022/02/15 00:28:44;;;;;;;18.15;14.87;;;;;;;6.02;65.90;99472.53;2828048;84;20996;-73
2022/02/15 00:32:46;;;;;;;23.40;14.05;;;;;;;6.08;66.00;99469.42;2827637;84;21024;-73
2022/02/15 00:36:48;;;;;;;21.10;13.95;;;;;;;6.16;65.81;99471.97;2841263;82;21041;-70
2022/02/15 00:40:49;;;;;;;19.90;13.68;;;;;;;6.19;65.80;99481.83;2832005;82;21011;-72
2022/02/15 00:44:51;;;;;;;20.72;13.85;;;;;;;6.24;65.89;99480.13;2795276;85;21062;-72
2022/02/15 00:48:52;;;;;;;24.52;13.90;;;;;;;6.30;66.03;99482.33;2833742;82;20991;-71
2022/02/15 00:52:54;;;;;;;20.82;14.53;;;;;;;6.37;65.52;99478.23;2835155;82;21023;-72
2022/02/15 00:56:56;;;;;;;17.15;12.47;;;;;;;6.46;65.43;99481.12;2795040;85;20982;-72
2022/02/15 01:00:57;;;;;;;21.23;14.03;;;;;;;6.45;65.12;99476.80;2836233;84;21023;-72
2022/02/15 01:04:59;;;;;;;15.25;12.47;;;;;;;6.50;65.12;99486.05;2836384;84;20991;-72
2022/02/15 01:09:00;;;;;;;21.23;13.85;;;;;;;6.54;65.42;99479.56;2836211;84;21022;-72
2022/02/15 01:13:02;;;;;;;21.15;14.10;;;;;;;6.55;65.66;99479.09;2857500;82;20994;-71
2022/02/15 01:17:04;;;;;;;19.60;13.53;;;;;;;6.61;65.57;99477.28;2877673;82;21046;-72
2022/02/15 01:21:05;;;;;;;21.00;13.55;;;;;;;6.63;65.14;99477.18;2838587;82;21086;-73
2022/02/15 01:25:08;;;;;;;19.87;15.00;;;;;;;6.67;64.87;99476.80;2795170;85;21062;-72
2022/02/15 01:29:09;;;;;;;24.50;16.60;;;;;;;6.69;64.81;99473.58;2836057;84;21023;-73
2022/02/15 01:33:11;;;;;;;24.20;15.63;;;;;;;6.68;65.02;99471.05;2836193;84;21019;-73
2022/02/15 01:37:12;;;;;;;15.88;11.63;;;;;;;6.65;65.04;99468.15;2838119;84;21059;-73
2022/02/15 01:41:14;;;;;;;21.37;11.97;;;;;;;6.61;64.92;99465.89;2839161;84;21043;-73
2022/02/15 01:45:18;;;;;;;20.72;12.20;;;;;;;6.63;64.96;99466.61;2839185;84;20991;-70
2022/02/15 01:49:19;;;;;;;14.65;12.88;;;;;;;6.60;65.06;99453.64;2838865;84;21043;-72
2022/02/15 01:53:21;;;;;;;19.48;13.28;;;;;;;6.62;65.12;99455.68;2838903;84;21016;-72
2022/02/15 01:57:24;;;;;;;18.48;12.85;;;;;;;6.62;65.36;99456.50;2838237;82;21073;-73
2022/02/15 02:01:25;;;;;;;23.18;13.22;;;;;;;6.69;65.47;99455.54;2834165;84;21197;-73
2022/02/15 02:09:42;;;;;;;15.68;11.05;;;;;;;6.71;65.84;99461.55;2842676;83;21077;-72
2022/02/15 02:13:44;;;;;;;22.20;15.10;;;;;;;6.76;65.84;99455.90;2789136;85;21037;-71
2022/02/15 02:17:46;;;;;;;20.30;12.53;;;;;;;6.82;65.81;99465.98;2842397;83;21046;-71
2022/02/15 02:21:47;;;;;;;16.93;13.28;;;;;;;6.82;65.80;99460.69;2842202;83;21010;-72
2022/02/15 02:25:49;;;;;;;23.45;14.13;;;;;;;6.90;65.86;99460.09;2829850;84;20991;-69
2022/02/15 02:29:53;;;;;;;19.40;13.93;;;;;;;6.91;66.14;99454.69;2833371;84;20999;-73
2022/02/15 02:34:00;;;;;;;21.62;13.40;;;;;;;6.91;66.27;99457.33;2833529;84;21058;-72
2022/02/15 02:38:01;;;;;;;21.15;13.38;;;;;;;6.92;68.04;99452.87;2789064;85;21038;-72
2022/02/15 02:42:03;;;;;;;17.87;12.53;;;;;;;6.91;68.57;99456.01;2842269;83;20979;-72
2022/02/15 02:46:05;;;;;;;22.87;15.00;;;;;;;6.87;68.64;99447.94;2842786;83;20998;-70
2022/02/15 02:50:07;;;;;;;16.15;12.78;;;;;;;6.91;68.49;99455.16;2829820;84;21128;-73
2022/02/15 02:54:09;;;;;;;17.50;13.40;;;;;;;6.94;69.48;99461.05;2829628;84;21043;-73
2022/02/15 02:58:10;;;;;;;16.00;13.40;;;;;;;6.91;70.06;99470.55;2833579;84;20999;-72
2022/02/15 03:02:13;;;;;;;20.52;15.50;;;;;;;6.84;70.42;99458.77;2833036;84;21034;-72
2022/02/15 03:06:15;;;;;;;20.40;12.90;;;;;;;6.82;71.69;99464.66;2833635;84;20979;-73
2022/02/15 03:10:16;;;;;;;18.48;14.80;;;;;;;6.80;72.23;99462.63;2789218;85;21053;-69
2022/02/15 03:14:18;;;;;;;21.23;15.30;;;;;;;6.78;72.35;99465.41;2842623;82;21558;-72
2022/02/15 03:18:20;;;;;;;21.17;15.65;;;;;;;6.73;72.68;99459.62;2842864;83;21059;-72
2022/02/15 03:22:22;;;;;;;16.35;13.40;;;;;;;6.71;72.16;99460.22;2843507;83;20995;-72
2022/02/15 03:26:24;;;;;;;24.50;14.87;;;;;;;6.67;71.34;99461.43;2843600;83;21081;-69
2022/02/15 03:30:25;;;;;;;19.40;14.00;;;;;;;6.70;71.03;99475.25;2843648;83;21030;-72
2022/02/15 03:34:27;;;;;;;21.37;15.30;;;;;;;6.69;70.99;99466.11;2843525;83;21076;-71
2022/02/15 03:38:29;;;;;;;22.25;16.00;;;;;;;6.74;70.80;99468.41;2842984;83;21060;-72
2022/02/15 03:46:45;;;;;;;20.57;14.93;;;;;;;6.77;70.02;99479.55;2843294;83;21539;-70
2022/02/15 03:50:47;;;;;;;21.70;14.50;;;;;;;6.79;70.29;99472.84;2843811;83;21027;-72
2022/02/15 03:54:48;;;;;;;20.82;15.13;;;;;;;6.79;70.60;99471.52;2843684;83;21051;-72
2022/02/15 03:58:50;;;;;;;20.37;14.30;;;;;;;6.75;70.50;99474.87;2843549;83;20984;-72
2022/02/15 04:02:52;;;;;;;17.42;13.25;;;;;;;6.75;70.29;99478.02;2843653;83;21078;-72
2022/02/15 04:06:54;;;;;;;19.65;13.55;;;;;;;6.77;70.48;99486.16;2843555;83;21027;-71
2022/02/15 04:10:55;;;;;;;20.82;14.78;;;;;;;6.76;70.37;99489.77;2843917;83;21094;-72
2022/02/15 04:14:57;;;;;;;22.07;14.75;;;;;;;6.72;70.36;99484.37;2843164;83;20991;-72
2022/02/15 04:18:58;;;;;;;16.93;14.07;;;;;;;6.72;70.41;99489.66;2843713;83;21015;-72
2022/02/15 04:23:00;;;;;;;20.85;15.95;;;;;;;6.73;70.57;99503.23;2843612;83;21046;-72
2022/02/15 04:27:02;;;;;;;21.55;14.85;;;;;;;6.73;70.60;99497.94;2843376;82;21055;-70
2022/02/15 04:31:03;;;;;;;18.57;14.03;;;;;;;6.67;70.84;99503.72;2843168;83;21375;-74
2022/02/15 04:35:06;;;;;;;21.37;14.68;;;;;;;6.64;71.25;99515.36;2843471;83;21015;-73
2022/02/15 04:39:08;;;;;;;20.40;15.45;;;;;;;6.57;71.71;99522.92;2836085;84;21051;-74
2022/02/15 04:43:09;;;;;;;20.12;14.95;;;;;;;6.55;71.94;99526.16;2831040;84;21069;-73
2022/02/15 04:47:11;;;;;;;22.10;17.70;;;;;;;6.55;72.14;99530.13;2794079;85;21053;-72
2022/02/15 04:51:12;;;;;;;24.30;15.70;;;;;;;6.54;72.39;99534.23;2794512;85;21043;-73
2022/02/15 04:55:15;;;;;;;20.00;15.45;;;;;;;6.55;72.30;99541.19;2794275;85;21079;-73
2022/02/15 04:59:16;;;;;;;21.05;16.82;;;;;;;6.55;72.21;99542.52;2839711;83;21057;-73
2022/02/15 05:03:18;;;;;;;23.15;17.20;;;;;;;6.55;72.52;99547.30;2840126;82;21026;-71
2022/02/15 05:07:21;;;;;;;20.57;14.93;;;;;;;6.60;72.47;99546.13;2840946;83;21070;-67
2022/02/15 05:11:23;;;;;;;22.58;15.75;;;;;;;6.63;72.27;99547.21;2840930;82;21026;-68
2022/02/15 05:15:25;;;;;;;20.62;16.17;;;;;;;6.66;71.90;99553.58;2795118;85;21041;-70
2022/02/15 05:19:27;;;;;;;23.05;16.75;;;;;;;6.68;71.73;99556.94;2794951;84;21071;-69
2022/02/15 05:23:30;;;;;;;26.37;14.98;;;;;;;6.74;71.73;99556.45;2794829;84;21021;-73
2022/02/15 05:27:31;;;;;;;21.48;15.28;;;;;;;6.81;71.79;99550.21;2794797;85;21091;-69
2022/02/15 05:31:33;;;;;;;20.00;14.87;;;;;;;6.77;72.08;99554.06;2794871;84;21091;-69
2022/02/15 05:35:35;;;;;;;22.65;16.37;;;;;;;6.78;72.63;99568.49;2794916;85;21020;-70
2022/02/15 05:39:36;;;;;;;22.58;16.05;;;;;;;6.76;73.33;99570.88;2835120;84;21050;-70
2022/02/15 05:43:38;;;;;;;20.30;15.60;;;;;;;6.71;73.80;99576.05;2794335;85;21098;-68
2022/02/15 05:47:40;;;;;;;21.62;15.05;;;;;;;6.68;74.00;99578.94;2834731;84;20990;-69
2022/02/15 05:51:42;;;;;;;21.10;15.72;;;;;;;6.59;74.24;99576.16;2834952;84;21066;-69
2022/02/15 05:55:44;;;;;;;21.00;15.00;;;;;;;6.62;74.09;99583.35;2794253;85;21038;-69
2022/02/15 05:59:46;;;;;;;21.35;16.35;;;;;;;6.58;74.23;99588.52;2835115;84;21129;-69
2022/02/15 06:08:04;;;;;;;25.82;17.73;;;;;;;6.54;74.39;99605.57;2834680;84;21046;-69
2022/02/15 06:12:07;;;;;;;24.35;16.62;;;;;;;6.53;74.53;99596.78;2794906;83;21049;-70
2022/02/15 06:16:09;;;;;;;22.85;16.35;;;;;;;6.53;74.48;99605.20;2834676;84;21074;-68
2022/02/15 06:20:11;;;;;;;21.07;14.63;;;;;;;6.56;74.43;99618.19;2834199;84;20998;-68
2022/02/15 06:24:14;;;;;;;21.12;17.70;;;;;;;6.60;74.18;99628.88;2793913;85;21089;-69
2022/02/15 06:28:15;;;;;;;26.00;19.65;;;;;;;6.62;73.99;99629.60;2839848;84;21070;-69
2022/02/15 06:32:17;;;;;;;23.02;17.40;;;;;;;6.64;73.92;99639.58;2839564;82;20996;-69
2022/02/15 06:36:19;;;;;;;27.00;20.20;;;;;;;6.68;73.83;99639.73;2833091;84;21050;-68
2022/02/15 06:40:21;;;;;;;31.50;20.48;;;;;;;6.70;74.01;99642.23;2833314;84;21018;-69
2022/02/15 06:44:23;;;;;;;25.82;18.42;;;;;;;6.70;74.24;99646.20;2833280;84;20987;-69
2022/02/15 06:48:24;;;;;;;30.45;18.00;;;;;;;6.77;74.18;99653.19;2836442;84;20956;-69
2022/02/15 06:52:27;;;;;;;25.27;18.87;;;;;;;6.74;73.96;99652.93;2837543;82;21075;-68
2022/02/15 06:56:28;;;;;;;32.23;22.07;;;;;;;6.82;73.76;99658.95;2838755;84;21016;-69
2022/02/15 07:00:30;;;;;;;27.55;18.62;;;;;;;6.89;74.19;99661.52;2838004;82;21018;-69
2022/02/15 07:04:32;;;;;;;21.90;17.00;;;;;;;6.91;74.79;99660.92;2838637;84;21028;-69
2022/02/15 07:08:34;;;;;;;23.52;16.62;;;;;;;6.94;74.98;99663.32;2838849;84;21039;-69
2022/02/15 07:12:36;;;;;;;24.98;18.75;;;;;;;7.00;75.06;99668.13;2838712;84;21102;-69
2022/02/15 07:16:38;;;;;;;27.05;18.85;;;;;;;7.05;75.20;99673.53;2839063;84;21065;-68
2022/02/15 07:20:40;;;;;;;24.63;18.17;;;;;;;7.12;75.45;99673.44;2833564;84;21030;-68
2022/02/15 07:24:41;;;;;;;23.83;15.95;;;;;;;7.18;75.34;99676.92;2789237;85;21030;-69
2022/02/15 07:28:43;;;;;;;27.02;17.35;;;;;;;7.22;75.27;99683.66;2842628;83;20990;-69
2022/02/15 07:32:44;;;;;;;27.75;17.92;;;;;;;7.31;74.97;99686.07;2789611;85;20994;-69
2022/02/15 07:36:46;;;;;;;23.98;19.98;;;;;;;7.39;74.41;99693.41;2837644;83;21011;-69
2022/02/15 07:40:48;;;;;;;28.47;18.87;;;;;;;7.45;74.06;99696.06;2819391;84;21067;-68
2022/02/15 07:44:50;;;;;;;23.07;16.67;;;;;;;7.50;73.47;99694.75;2819408;84;21603;-68
2022/02/15 07:48:52;;;;;;;24.05;16.37;;;;;;;7.58;73.80;99692.83;2819537;84;21054;-69
2022/02/15 07:52:57;;;;;;;29.18;18.00;;;;;;;7.68;74.00;99695.59;2819781;84;21066;-69
2022/02/15 07:56:59;;;;;;;22.62;15.72;;;;;;;7.75;74.37;99697.23;2782769;85;21074;-68
2022/02/15 08:01:01;;;;;;;27.52;19.35;;;;;;;7.81;74.41;99704.72;2810300;84;21016;-69
2022/02/15 08:05:03;;;;;;;27.50;18.48;;;;;;;7.89;74.79;99706.75;2810454;84;20984;-69
2022/02/15 08:09:05;;;;;;;23.18;16.30;;;;;;;7.95;75.22;99707.58;2782959;85;21065;-68
2022/02/15 08:13:08;;;;;;;23.65;17.92;;;;;;;8.06;75.29;99706.71;2780202;84;20991;-68
2022/02/15 08:17:10;;;;;;;25.30;15.93;;;;;;;8.15;75.43;99701.52;2781281;85;21033;-68
2022/02/15 08:21:12;;;;;;;23.02;16.23;;;;;;;8.27;75.23;99707.61;2783026;84;21026;-69
2022/02/15 08:25:13;;;;;;;20.40;14.43;;;;;;;8.40;74.88;99715.90;2783149;85;21030;-68
2022/02/15 08:29:15;;;;;;;25.00;18.50;;;;;;;8.43;74.47;99719.12;2780448;84;21043;-69
2022/02/15 08:33:17;;;;;;;27.67;18.75;;;;;;;8.58;74.88;99726.81;2779749;85;21687;-68
2022/02/15 08:37:19;;;;;;;20.08;14.63;;;;;;;8.68;74.32;99729.55;2787770;85;20971;-69
2022/02/15 08:41:20;;;;;;;18.50;15.65;;;;;;;8.74;73.99;99733.00;2839834;84;20987;-68
2022/02/15 08:45:23;;;;;;;22.75;17.42;;;;;;;8.79;73.85;99735.28;2839566;82;21019;-68
2022/02/15 08:49:24;;;;;;;22.20;17.40;;;;;;;8.84;73.35;99734.41;2790534;83;21010;-68
2022/02/15 08:53:26;;;;;;;28.77;19.27;;;;;;;8.85;72.53;99740.92;2844325;83;21031;-68
2022/02/15 08:57:28;;;;;;;29.65;18.75;;;;;;;8.90;72.69;99736.56;2844529;82;21086;-68
2022/02/15 09:01:32;;;;;;;25.80;17.73;;;;;;;9.00;72.88;99746.75;2843523;83;21046;-68
2022/02/15 09:05:33;;;;;;;21.48;15.93;;;;;;;9.05;72.73;99747.69;2791142;83;21042;-68
2022/02/15 09:09:34;;;;;;;23.18;16.97;;;;;;;9.11;72.09;99751.64;2843509;83;21010;-69
2022/02/15 09:13:36;;;;;;;20.90;16.62;;;;;;;9.20;71.99;99754.83;2844200;83;21019;-71
2022/02/15 09:17:39;;;;;;;22.15;17.62;;;;;;;9.24;71.45;99760.27;2844905;82;21050;-68
2022/02/15 09:21:40;;;;;;;20.25;15.08;;;;;;;9.27;71.14;99761.33;2790545;85;21017;-68
2022/02/15 09:25:42;;;;;;;29.40;19.57;;;;;;;9.27;71.28;99769.75;2843585;83;21054;-68
2022/02/15 09:29:44;;;;;;;26.45;19.12;;;;;;;9.34;71.78;99771.41;2790365;83;21245;-68
2022/02/15 09:33:51;;;;;;;20.72;18.37;;;;;;;9.39;71.47;99783.80;2840639;84;21008;-68
2022/02/15 09:37:50;;;;;;;17.85;14.87;;;;;;;9.43;72.53;99779.43;2817858;82;21003;-67
2022/02/15 09:41:52;;;;;;;24.52;16.25;;;;;;;9.52;72.50;99784.91;2827390;84;21050;-68
2022/02/15 09:45:54;;;;;;;21.20;18.90;;;;;;;9.51;72.76;99791.20;2847335;82;21036;-67
2022/02/15 09:49:56;;;;;;;21.37;17.27;;;;;;;9.60;72.08;99788.23;2859796;82;21039;-67
2022/02/15 09:53:58;;;;;;;25.02;18.05;;;;;;;9.54;71.58;99789.13;2834870;82;21062;-67
2022/02/15 09:57:59;;;;;;;21.12;16.55;;;;;;;9.51;71.02;99793.38;2788263;85;21043;-67
2022/02/15 10:02:09;;;;;;;25.08;15.90;;;;;;;9.43;71.41;99797.16;2740388;87;20999;-67
2022/02/15 10:06:11;;;;;;;22.75;17.02;;;;;;;9.43;71.52;99804.65;2824648;83;21054;-66
2022/02/15 10:10:14;;;;;;;28.87;18.80;;;;;;;9.45;71.27;99801.88;2790789;85;21050;-66
2022/02/15 10:14:23;;;;;;;22.48;15.68;;;;;;;9.46;70.85;99805.36;2742780;87;21102;-67
2022/02/15 10:18:29;;;;;;;26.95;19.62;;;;;;;9.56;71.81;99805.77;2826611;83;21011;-66
2022/02/15 10:22:27;;;;;;;25.10;19.87;;;;;;;9.67;71.43;99809.33;2819800;84;21058;-66
2022/02/15 10:26:29;;;;;;;29.42;18.27;;;;;;;9.83;70.86;99805.72;2816572;84;21136;-66
2022/02/15 10:30:35;;;;;;;27.52;19.20;;;;;;;9.81;70.12;99798.34;2820634;83;21085;-66
2022/02/15 10:34:53;;;;;;;27.02;17.50;;;;;;;9.90;70.44;99808.66;2856673;82;21017;-66
2022/02/15 10:38:57;;;;;;;25.55;17.95;;;;;;;9.92;68.75;99801.89;2770633;85;21067;-66
2022/02/15 10:42:58;;;;;;;21.07;17.70;;;;;;;9.82;68.82;99796.03;2799426;83;21479;-66
2022/02/15 10:47:02;;;;;;;22.87;17.10;;;;;;;9.87;70.22;99794.31;2811537;83;21047;-66
2022/02/15 10:51:04;;;;;;;25.43;16.05;;;;;;;10.02;69.47;99795.28;2815388;83;21023;-66
2022/02/15 10:55:07;;;;;;;20.77;15.03;;;;;;;10.14;68.86;99795.05;2813392;84;21023;-66
2022/02/15 10:59:11;;;;;;;16.57;14.25;;;;;;;10.28;69.21;99796.98;2807518;83;21035;-66
2022/02/15 11:03:14;;;;;;;23.27;16.87;;;;;;;10.33;67.77;99804.05;2810693;84;21047;-68
2022/02/15 11:07:23;;;;;;;23.22;16.23;;;;;;;10.32;68.49;99803.70;2809313;84;21542;-68
2022/02/15 11:11:26;;;;;;;19.23;14.35;;;;;;;10.47;69.13;99810.00;2803806;84;21035;-68
2022/02/15 11:15:32;;;;;;;19.10;15.83;;;;;;;10.59;69.14;99806.22;2809344;84;21546;-68
2022/02/15 11:19:39;;;;;;;23.57;16.00;;;;;;;10.73;68.93;99815.65;2810462;84;20996;-67
2022/02/15 11:23:45;;;;;;;17.35;14.45;;;;;;;10.92;67.96;99804.16;2806649;83;21358;-68
2022/02/15 11:27:50;;;;;;;18.75;14.75;;;;;;;11.02;67.94;99806.00;2805704;83;21063;-67
2022/02/15 11:31:54;;;;;;;19.10;15.95;;;;;;;11.12;67.69;99798.83;2803191;83;21067;-67
2022/02/15 11:36:14;;;;;;;18.10;13.70;;;;;;;11.25;67.80;99794.06;2805374;83;21034;-68
2022/02/15 11:40:16;;;;;;;25.10;15.10;;;;;;;11.33;67.40;99786.70;2804272;83;21039;-67
2022/02/15 11:44:31;;;;;;;18.62;14.28;;;;;;;11.43;67.28;99786.67;2806460;84;21012;-67
2022/02/15 11:48:42;;;;;;;25.30;14.20;;;;;;;11.51;66.67;99783.30;2802556;83;21471;-67
2022/02/15 11:52:45;;;;;;;18.02;13.08;;;;;;;11.65;66.42;99792.64;2801312;84;21503;-67
2022/02/15 11:56:51;;;;;;;17.45;12.85;;;;;;;11.74;65.70;99783.77;2776677;84;30579;-67
2022/02/15 12:00:53;;;;;;;15.58;11.90;;;;;;;11.80;65.90;99785.02;2807964;83;21119;-67
2022/02/15 12:04:59;;;;;;;18.57;13.15;;;;;;;11.96;66.96;99786.56;2811434;84;21077;-69
2022/02/15 12:09:00;;;;;;;;;;;;;;;12.05;66.11;99780.87;2805486;83;20987;-67
2022/02/15 12:13:03;;;;;;;16.52;11.75;;;;;;;12.15;66.00;99776.83;2811790;84;20550;-67
2022/02/15 12:17:04;;;;;;;17.05;10.40;;;;;;;12.23;66.02;99777.42;2813496;84;21432;-67
2022/02/15 12:21:06;;;;;;;11.20;6.78;;;;;;;12.40;66.60;99773.09;2809866;84;21071;-67
2022/02/15 12:25:09;;;;;;;15.98;5.28;;;;;;;12.46;65.34;99772.48;2810385;84;21024;-67
2022/02/15 12:29:12;;;;;;;8.78;4.92;;;;;;;12.53;66.49;99770.05;2810466;84;21020;-67
2022/02/15 12:33:14;;;;;;;8.88;5.15;;;;;;;12.57;65.00;99770.09;2809111;84;21048;-67
2022/02/15 12:37:22;;;;;;;5.90;3.77;;;;;;;12.60;65.53;99767.63;2809308;83;21013;-67
2022/02/15 12:41:24;;;;;;;6.12;4.67;;;;;;;12.64;64.28;99771.66;2776320;85;21059;-68
2022/02/15 12:45:27;;;;;;;7.45;4.78;;;;;;;12.65;65.21;99770.19;2775564;85;22282;-67
2022/02/15 12:49:28;;;;;;;8.58;6.05;;;;;;;12.62;65.43;99773.64;2808413;84;21031;-67
2022/02/15 12:53:30;;;;;;;8.33;5.83;;;;;;;12.59;65.95;99771.28;2686653;87;21034;-68
2022/02/15 12:57:31;;;;;;;5.10;4.53;;;;;;;12.55;65.22;99766.25;2761085;85;21018;-68
2022/02/15 13:01:38;;;;;;;10.15;5.40;;;;;;;12.45;64.18;99765.47;2734949;85;21407;-69
2022/02/15 13:05:40;;;;;;;7.03;5.60;;;;;;;12.45;64.49;99762.80;2753093;85;21431;-69
2022/02/15 13:09:48;;;;;;;8.28;5.00;;;;;;;12.45;65.34;99764.64;2778140;85;21010;-68
2022/02/15 13:13:49;;;;;;;12.37;5.12;;;;;;;12.44;64.60;99770.46;2772524;84;21042;-67
2022/02/15 13:17:54;;;;;;;7.60;5.47;;;;;;;12.53;65.56;99772.72;2755080;85;21061;-68
2022/02/15 13:21:55;;;;;;;8.45;5.70;;;;;;;12.56;64.29;99769.75;2739830;84;21065;-66
2022/02/15 13:25:57;;;;;;;6.30;5.70;;;;;;;12.64;64.00;99771.66;2763671;86;21075;-68
2022/02/15 13:30:00;;;;;;;11.05;6.58;;;;;;;12.70;64.05;99763.89;2702307;87;21067;-66
2022/02/15 13:34:05;;;;;;;13.98;5.55;;;;;;;12.81;63.80;99766.00;2768173;85;21356;-65
2022/02/15 13:38:11;;;;;;;9.35;6.03;;;;;;;12.83;63.96;99769.34;2770993;85;21154;-65
2022/02/15 13:42:13;;;;;;;8.40;4.95;;;;;;;12.84;63.26;99773.69;2783331;85;21131;-64
2022/02/15 13:46:14;;;;;;;10.65;6.08;;;;;;;12.81;63.21;99774.00;2825653;84;21062;-65
2022/02/15 13:50:16;;;;;;;7.87;5.85;;;;;;;12.77;63.91;99775.28;2824840;84;21387;-65
2022/02/15 13:54:18;;;;;;;8.35;5.90;;;;;;;12.70;64.15;99768.41;2825069;84;21062;-68
2022/02/15 13:58:19;;;;;;;7.40;5.12;;;;;;;12.71;63.69;99774.91;2826729;82;21078;-67
2022/02/15 14:02:21;;;;;;;7.75;6.08;;;;;;;12.71;63.36;99765.56;2825163;82;21090;-67
2022/02/15 14:06:23;;;;;;;6.25;4.45;;;;;;;12.77;63.95;99773.94;2826198;82;21035;-67
2022/02/15 14:10:25;;;;;;;8.28;4.85;;;;;;;12.73;63.33;99778.77;2827608;82;21048;-69
2022/02/15 14:14:27;;;;;;;9.50;5.80;;;;;;;12.77;63.25;99782.80;2827892;82;21022;-68
2022/02/15 14:18:29;;;;;;;10.38;6.83;;;;;;;12.85;64.14;99791.38;2827026;82;21098;-70
2022/02/15 14:22:30;;;;;;;12.20;7.30;;;;;;;12.87;63.50;99798.73;2827866;82;21105;-67
2022/02/15 14:26:33;;;;;;;9.58;5.58;;;;;;;12.82;63.64;99801.86;2826329;82;21062;-64
2022/02/15 14:30:35;;;;;;;11.83;6.42;;;;;;;12.74;64.74;99806.27;2827664;82;21045;-67
2022/02/15 14:34:37;;;;;;;13.38;6.53;;;;;;;12.60;65.63;99808.50;2825184;84;21046;-65
2022/02/15 14:38:39;;;;;;;6.90;4.92;;;;;;;12.48;66.41;99818.55;2821684;84;21322;-67
2022/02/15 14:42:41;;;;;;;7.35;5.33;;;;;;;12.39;67.07;99820.76;2810252;84;21106;-67
2022/02/15 14:46:42;;;;;;;9.73;6.08;;;;;;;12.35;67.29;99816.20;2809978;84;21038;-67
2022/02/15 14:50:44;;;;;;;13.43;5.90;;;;;;;12.34;67.15;99821.20;2772671;85;21031;-67
2022/02/15 14:54:46;;;;;;;8.78;5.67;;;;;;;12.32;66.85;99820.52;2809986;84;21101;-68
2022/02/15 14:58:47;;;;;;;10.70;5.75;;;;;;;12.25;66.43;99823.44;2772642;85;21698;-68
2022/02/15 15:02:50;;;;;;;7.08;5.95;;;;;;;12.10;65.83;99822.58;2781703;82;21059;-69
2022/02/15 15:06:51;;;;;;;7.78;6.12;;;;;;;11.98;66.20;99831.71;2772955;85;21058;-67
2022/02/15 15:10:53;;;;;;;9.25;5.00;;;;;;;11.82;66.70;99818.53;2772394;85;21094;-67
2022/02/15 15:14:55;;;;;;;9.10;5.83;;;;;;;11.73;66.96;99830.05;2771828;85;21443;-67
2022/02/15 15:18:56;;;;;;;12.93;6.30;;;;;;;11.66;67.21;99832.44;2772397;85;21015;-67
2022/02/15 15:22:58;;;;;;;9.98;6.05;;;;;;;11.55;68.33;99844.10;2772292;85;21453;-66
2022/02/15 15:27:01;;;;;;;10.80;7.30;;;;;;;11.35;68.71;99851.77;2772829;85;21011;-68
2022/02/15 15:31:02;;;;;;;11.73;8.05;;;;;;;11.22;68.44;99852.92;2818555;82;21039;-67
2022/02/15 15:35:05;;;;;;;19.15;12.33;;;;;;;11.16;68.26;99854.80;2819414;83;21091;-67
2022/02/15 15:39:06;;;;;;;21.95;13.62;;;;;;;11.10;68.43;99849.56;2817706;83;21098;-70
2022/02/15 15:43:08;;;;;;;24.87;14.90;;;;;;;11.04;68.27;99854.60;2810087;83;21103;-67
2022/02/15 15:47:12;;;;;;;47.03;26.73;;;;;;;10.91;68.86;99857.03;2777653;85;21073;-66
2022/02/15 15:51:14;;;;;;;46.02;30.40;;;;;;;10.73;68.79;99850.70;2806922;83;21404;-68
2022/02/15 15:55:15;;;;;;;44.13;30.15;;;;;;;10.63;68.95;99849.36;2813704;83;21070;-67
2022/02/15 15:59:18;;;;;;;35.35;21.93;;;;;;;10.56;68.95;99853.91;2813325;83;20980;-67
2022/02/15 16:03:20;;;;;;;27.15;19.65;;;;;;;10.53;69.00;99857.31;2813583;83;21051;-68
2022/02/15 16:07:22;;;;;;;25.72;18.62;;;;;;;10.49;69.13;99860.72;2813500;84;21086;-68
2022/02/15 16:11:24;;;;;;;35.28;25.35;;;;;;;10.40;69.77;99859.72;2814669;84;21443;-68
2022/02/15 16:15:25;;;;;;;35.43;22.22;;;;;;;10.26;69.17;99860.91;2814915;84;21285;-68
2022/02/15 16:19:27;;;;;;;26.27;20.90;;;;;;;10.14;69.33;99862.81;2808839;83;21323;-69
2022/02/15 16:23:29;;;;;;;31.07;22.67;;;;;;;9.97;69.63;99859.45;2805772;83;21015;-67
2022/02/15 16:27:31;;;;;;;31.40;22.30;;;;;;;9.80;69.88;99856.92;2778389;85;21436;-68
2022/02/15 16:31:38;;;;;;;32.03;23.25;;;;;;;9.71;69.74;99860.70;2809476;84;21017;-68
2022/02/15 16:35:40;;;;;;;39.23;28.12;;;;;;;9.66;69.39;99862.92;2732019;87;21757;-68
2022/02/15 16:39:42;;;;;;;30.60;22.35;;;;;;;9.51;69.56;99861.08;2816137;84;21942;-67
2022/02/15 16:43:43;;;;;;;40.17;27.15;;;;;;;9.33;70.00;99869.27;2829556;84;21027;-67
2022/02/15 16:47:45;;;;;;;36.15;25.80;;;;;;;9.14;70.24;99869.46;2830144;84;21051;-67
2022/02/15 16:51:48;;;;;;;39.23;28.23;;;;;;;8.95;70.59;99873.63;2829031;84;20952;-67
2022/02/15 16:55:50;;;;;;;51.23;32.58;;;;;;;8.81;70.69;99872.58;2828352;82;21377;-67
2022/02/15 16:59:52;;;;;;;53.92;37.73;;;;;;;8.68;70.90;99877.56;2779924;85;21037;-68
2022/02/15 17:03:54;;;;;;;47.90;36.13;;;;;;;8.54;71.30;99878.65;2829345;84;21074;-66
2022/02/15 17:07:56;;;;;;;41.48;30.92;;;;;;;8.41;71.85;99887.20;2828891;82;21456;-67
2022/02/15 17:12:00;;;;;;;42.10;32.48;;;;;;;8.27;72.06;99890.45;2823721;84;21034;-68
2022/02/15 17:16:05;;;;;;;60.17;39.03;;;;;;;8.17;72.37;99895.27;2779956;83;21554;-67
2022/02/15 17:20:09;;;;;;;57.10;40.08;;;;;;;8.07;72.86;99894.68;2832082;83;21422;-68
2022/02/15 17:24:11;;;;;;;52.40;39.33;;;;;;;8.02;72.88;99892.02;2780246;83;21488;-68
2022/02/15 17:28:12;;;;;;;47.93;36.23;;;;;;;7.93;72.74;99895.72;2833266;82;21320;-68
2022/02/15 17:32:14;;;;;;;61.88;38.73;;;;;;;7.88;73.10;99891.77;2833313;82;21116;-68
2022/02/15 17:36:15;;;;;;;52.35;35.40;;;;;;;7.80;73.27;99885.23;2820824;82;21426;-68
2022/02/15 17:40:17;;;;;;;63.75;41.18;;;;;;;7.70;73.75;99890.89;2776367;83;21046;-69
2022/02/15 17:44:20;;;;;;;63.42;41.65;;;;;;;7.63;73.80;99895.80;2768290;84;21069;-68
2022/02/15 17:48:22;;;;;;;51.90;33.50;;;;;;;7.61;73.32;99900.84;2769658;85;21055;-69
2022/02/15 17:52:24;;;;;;;52.95;35.10;;;;;;;7.51;73.77;99905.52;2766358;85;21064;-69
2022/02/15 17:56:29;;;;;;;45.38;29.48;;;;;;;7.40;74.15;99908.11;2766536;85;21338;-68
2022/02/15 18:00:30;;;;;;;48.78;31.15;;;;;;;7.28;74.55;99909.41;2770175;85;21069;-68
2022/02/15 18:04:31;;;;;;;54.75;35.25;;;;;;;7.22;74.73;99899.75;2808435;83;21107;-68
2022/02/15 18:08:33;;;;;;;60.73;38.50;;;;;;;7.17;74.73;99898.77;2809486;84;21062;-69
2022/02/15 18:12:35;;;;;;;57.50;35.85;;;;;;;7.13;74.92;99900.78;2771348;84;21029;-69
2022/02/15 18:16:36;;;;;;;57.95;38.92;;;;;;;7.08;75.16;99906.90;2776203;85;21098;-68
2022/02/15 18:20:40;;;;;;;64.90;40.73;;;;;;;7.04;75.20;99902.80;2773336;85;21169;-68
2022/02/15 18:24:42;;;;;;;68.60;49.90;;;;;;;6.97;75.21;99902.39;2772152;84;21093;-68
2022/02/15 18:28:45;;;;;;;69.50;45.17;;;;;;;6.83;75.89;99894.61;2807792;84;21099;-69
2022/02/15 18:32:46;;;;;;;95.20;55.03;;;;;;;6.65;76.01;99900.27;2806719;83;21047;-69
2022/02/15 18:36:48;;;;;;;70.05;41.83;;;;;;;6.56;76.87;99902.27;2811761;84;21295;-68
2022/02/15 18:40:50;;;;;;;65.42;41.45;;;;;;;6.54;77.43;99906.81;2818673;82;21055;-68
2022/02/15 18:44:54;;;;;;;66.12;39.67;;;;;;;6.59;77.24;99907.82;2827002;82;21070;-68
2022/02/15 18:48:58;;;;;;;61.80;37.13;;;;;;;6.61;77.39;99917.80;2827145;84;21400;-69
2022/02/15 18:53:00;;;;;;;52.75;36.40;;;;;;;6.65;77.19;99913.48;2828089;84;21651;-68
2022/02/15 18:57:03;;;;;;;41.60;30.15;;;;;;;6.61;77.29;99909.87;2828529;84;21031;-67